createdAt,value
2022-09-28T00:01:18.654Z,66.99
2022-09-28T00:03:48.387Z,67.70
2022-09-28T00:06:19.203Z,64.59
2022-09-28T00:08:47.600Z,65.60
2022-09-28T00:11:15.690Z,64.42
2022-09-28T00:13:44.036Z,61.19
2022-09-28T00:16:15.190Z,62.09
2022-09-28T00:18:43.830Z,62.78
2022-09-28T00:21:13.947Z,64.70
2022-09-28T00:24:01.033Z,64.70
2022-09-28T00:26:29.476Z,61.54
2022-09-28T00:28:59.604Z,61.36
2022-09-28T00:31:30.284Z,62.22
2022-09-28T00:34:00.351Z,63.86
2022-09-28T00:36:30.063Z,64.58
2022-09-28T00:38:58.564Z,64.10
2022-09-28T00:41:27.698Z,66.24
2022-09-28T00:44:26.969Z,66.57
2022-09-28T00:47:13.141Z,67.02
2022-09-28T00:49:48.372Z,67.43
2022-09-28T00:52:20.437Z,68.18
2022-09-28T00:54:48.415Z,67.29
2022-09-28T00:57:17.144Z,66.75
2022-09-28T00:59:45.063Z,66.31
2022-09-28T01:02:12.865Z,66.22
2022-09-28T01:04:41.101Z,65.78
2022-09-28T01:07:09.671Z,65.44
2022-09-28T01:09:39.031Z,67.56
2022-09-28T01:12:07.294Z,64.31
2022-09-28T01:14:34.692Z,67.02
2022-09-28T01:17:40.751Z,64.84
2022-09-28T01:20:23.122Z,66.39
2022-09-28T01:23:15.534Z,66.07
2022-09-28T01:26:09.349Z,63.27
2022-09-28T01:28:37.221Z,63.47
2022-09-28T01:31:12.619Z,62.59
2022-09-28T01:33:44.675Z,64.92
2022-09-28T01:36:17.997Z,64.87
2022-09-28T01:39:01.305Z,63.73
2022-09-28T01:41:33.541Z,64.21
2022-09-28T01:44:03.055Z,64.56
2022-09-28T01:46:36.945Z,65.03
2022-09-28T01:49:13.036Z,67.06
2022-09-28T01:51:51.450Z,63.83
2022-09-28T01:54:27.371Z,62.72
2022-09-28T01:57:00.624Z,62.31
2022-09-28T01:59:33.743Z,63.88
2022-09-28T02:02:05.855Z,66.18
2022-09-28T02:04:37.459Z,64.02
2022-09-28T02:07:14.447Z,63.67
2022-09-28T02:09:45.620Z,62.62
2022-09-28T02:12:33.839Z,62.30
2022-09-28T02:15:23.719Z,63.53
2022-09-28T02:17:51.841Z,65.66
2022-09-28T02:20:21.643Z,66.91
2022-09-28T02:22:55.852Z,68.37
2022-09-28T02:25:31.580Z,64.21
2022-09-28T02:28:07.365Z,62.64
2022-09-28T02:30:38.021Z,63.69
2022-09-28T02:33:28.491Z,64.16
2022-09-28T02:35:58.156Z,64.20
2022-09-28T02:38:26.051Z,64.69
2022-09-28T02:41:05.394Z,65.53
2022-09-28T02:44:01.739Z,66.44
2022-09-28T02:46:31.520Z,64.65
2022-09-28T02:49:25.858Z,67.87
2022-09-28T02:52:13.876Z,69.55
2022-09-28T02:55:22.036Z,70.31
2022-09-28T02:58:01.880Z,70.93
2022-09-28T03:00:33.038Z,72.24
2022-09-28T03:03:13.605Z,70.99
2022-09-28T03:06:04.553Z,71.50
2022-09-28T03:08:43.486Z,71.89
2022-09-28T03:11:20.627Z,72.59
2022-09-28T03:13:51.882Z,72.11
2022-09-28T03:16:20.331Z,71.98
2022-09-28T03:18:48.359Z,71.53
2022-09-28T03:21:16.350Z,70.89
2022-09-28T03:23:44.061Z,70.82
2022-09-28T03:26:12.924Z,71.42
2022-09-28T03:28:40.906Z,72.48
2022-09-28T03:31:09.403Z,71.74
2022-09-28T03:33:37.280Z,74.46
2022-09-28T03:36:05.978Z,71.87
2022-09-28T03:38:33.883Z,70.35
2022-09-28T03:41:01.674Z,68.72
2022-09-28T03:43:30.483Z,68.74
2022-09-28T03:46:00.065Z,70.59
2022-09-28T03:48:33.176Z,73.59
2022-09-28T03:51:04.064Z,74.35
2022-09-28T03:53:32.742Z,74.95
2022-09-28T03:56:26.821Z,75.34
2022-09-28T03:58:54.591Z,75.26
2022-09-28T04:01:22.067Z,74.66
2022-09-28T04:03:55.428Z,75.19
2022-09-28T04:06:23.937Z,73.16
2022-09-28T04:08:52.287Z,70.92
2022-09-28T04:11:19.751Z,68.66
2022-09-28T04:13:50.308Z,64.36
2022-09-28T04:16:19.115Z,64.34
2022-09-28T04:18:48.442Z,64.02
2022-09-28T04:21:17.997Z,63.80
2022-09-28T04:23:47.031Z,63.86
2022-09-28T04:26:20.652Z,63.30
2022-09-28T04:29:07.690Z,64.75
2022-09-28T04:31:40.782Z,63.73
2022-09-28T04:34:09.083Z,64.93
2022-09-28T04:36:37.209Z,64.99
2022-09-28T04:39:05.499Z,68.95
2022-09-28T04:41:33.615Z,71.56
2022-09-28T04:44:01.660Z,73.11
2022-09-28T04:46:29.170Z,75.37
2022-09-28T04:48:57.864Z,75.97
2022-09-28T04:51:25.961Z,75.61
2022-09-28T04:53:53.328Z,71.43
2022-09-28T04:56:21.260Z,67.83
2022-09-28T04:58:52.736Z,67.97
2022-09-28T05:01:24.357Z,69.88
2022-09-28T05:03:54.183Z,72.28
2022-09-28T05:06:23.177Z,75.91
2022-09-28T05:08:52.568Z,77.42
2022-09-28T05:11:21.813Z,77.54
2022-09-28T05:13:50.488Z,78.48
2022-09-28T05:16:18.411Z,79.50
2022-09-28T05:18:47.418Z,80.81
2022-09-28T05:21:15.945Z,80.87
2022-09-28T05:23:47.321Z,81.48
2022-09-28T05:26:15.214Z,80.91
2022-09-28T05:28:44.650Z,80.13
2022-09-28T05:31:13.050Z,79.75
2022-09-28T05:33:40.920Z,80.09
2022-09-28T05:36:11.004Z,80.41
2022-09-28T05:38:38.564Z,79.26
2022-09-28T05:41:06.948Z,79.11
2022-09-28T05:43:34.712Z,78.29
2022-09-28T05:46:06.191Z,78.47
2022-09-28T05:48:35.247Z,77.47
2022-09-28T05:51:03.080Z,75.62
2022-09-28T05:53:30.744Z,73.56
2022-09-28T05:55:59.626Z,73.08
2022-09-28T05:58:28.224Z,70.04
2022-09-28T06:00:56.717Z,68.46
2022-09-28T06:03:24.939Z,66.68
2022-09-28T06:05:52.364Z,69.61
2022-09-28T06:08:20.177Z,71.91
2022-09-28T06:10:48.148Z,73.28
2022-09-28T06:13:15.631Z,72.41
2022-09-28T06:15:46.294Z,71.48
2022-09-28T06:18:15.167Z,71.69
2022-09-28T06:20:43.093Z,69.49
2022-09-28T06:23:12.458Z,71.79
2022-09-28T06:25:40.895Z,72.00
2022-09-28T06:28:15.451Z,71.15
2022-09-28T06:30:44.112Z,70.36
2022-09-28T06:33:14.524Z,71.06
2022-09-28T06:35:42.449Z,68.36
2022-09-28T06:38:10.952Z,68.12
2022-09-28T06:40:38.894Z,70.06
2022-09-28T06:43:10.601Z,70.41
2022-09-28T06:45:50.654Z,70.11
2022-09-28T06:48:20.221Z,68.49
2022-09-28T06:50:49.960Z,67.73
2022-09-28T06:53:18.995Z,65.58
2022-09-28T06:55:50.070Z,62.77
2022-09-28T06:58:19.988Z,63.86
2022-09-28T07:00:49.844Z,63.14
2022-09-28T07:03:20.049Z,63.26
2022-09-28T07:05:49.759Z,60.36
2022-09-28T07:08:18.283Z,61.87
2022-09-28T07:10:48.466Z,63.74
2022-09-28T07:13:44.470Z,64.52
2022-09-28T07:16:06.175Z,64.15
2022-09-28T07:18:33.750Z,63.14
2022-09-28T07:21:02.962Z,58.64
2022-09-28T07:23:32.111Z,57.35
2022-09-28T07:26:06.756Z,57.48
2022-09-28T07:28:36.252Z,56.79
2022-09-28T07:31:04.194Z,55.51
2022-09-28T07:33:32.603Z,57.00
2022-09-28T07:36:02.963Z,56.80
2022-09-28T07:38:31.245Z,57.43
2022-09-28T07:41:16.853Z,57.88
2022-09-28T07:43:45.558Z,57.55
2022-09-28T07:46:13.285Z,60.18
2022-09-28T07:48:42.618Z,61.02
2022-09-28T07:51:10.667Z,61.10
2022-09-28T07:53:38.544Z,66.71
2022-09-28T07:56:08.773Z,65.33
2022-09-28T07:58:38.523Z,66.12
2022-09-28T08:01:10.605Z,66.06
2022-09-28T08:03:38.994Z,66.00
2022-09-28T08:06:11.145Z,66.32
2022-09-28T08:08:44.619Z,66.10
2022-09-28T08:11:14.318Z,65.22
2022-09-28T08:13:44.205Z,65.47
2022-09-28T08:16:12.792Z,65.72
2022-09-28T08:18:41.350Z,63.73
2022-09-28T08:21:29.341Z,63.87
2022-09-28T08:23:57.218Z,63.57
2022-09-28T08:26:25.036Z,63.18
2022-09-28T08:28:53.021Z,62.84
2022-09-28T08:31:22.787Z,64.01
2022-09-28T08:33:53.955Z,62.59
2022-09-28T08:36:29.486Z,62.32
2022-09-28T08:38:58.637Z,63.14
2022-09-28T08:41:40.411Z,63.29
2022-09-28T08:44:09.356Z,62.69
2022-09-28T08:46:48.006Z,62.16
2022-09-28T08:49:43.782Z,61.96
2022-09-28T08:52:26.417Z,60.39
2022-09-28T08:55:05.581Z,62.36
2022-09-28T08:57:42.060Z,61.66
2022-09-28T09:00:21.378Z,61.27
2022-09-28T09:02:49.397Z,61.06
2022-09-28T09:05:20.166Z,60.75
2022-09-28T09:08:04.468Z,61.08
2022-09-28T09:10:53.286Z,62.05
2022-09-28T09:13:46.003Z,61.13
2022-09-28T09:16:44.174Z,62.87
2022-09-28T09:19:40.455Z,60.39
2022-09-28T09:22:17.181Z,61.50
2022-09-28T09:24:52.307Z,59.72
2022-09-28T09:27:29.389Z,57.41
2022-09-28T09:30:07.082Z,60.38
2022-09-28T09:33:11.568Z,59.19
2022-09-28T09:35:45.848Z,59.62
2022-09-28T09:38:32.496Z,57.92
2022-09-28T09:41:03.899Z,57.28
2022-09-28T09:44:02.082Z,60.79
2022-09-28T09:46:39.665Z,59.44
2022-09-28T09:49:21.096Z,57.68
2022-09-28T09:52:24.591Z,59.28
2022-09-28T09:55:08.205Z,60.06
2022-09-28T09:57:50.960Z,59.36
2022-09-28T10:00:24.018Z,58.50
2022-09-28T10:02:53.506Z,59.67
2022-09-28T10:05:24.580Z,60.00
2022-09-28T10:08:00.499Z,59.26
2022-09-28T10:10:39.327Z,59.07
2022-09-28T10:13:08.888Z,59.94
2022-09-28T10:15:36.588Z,61.17
2022-09-28T10:18:06.971Z,59.32
2022-09-28T10:20:42.907Z,60.61
2022-09-28T10:23:37.286Z,58.87
2022-09-28T10:26:10.199Z,58.55
2022-09-28T10:29:01.362Z,59.14
2022-09-28T10:31:41.806Z,59.66
2022-09-28T10:34:15.283Z,59.32
2022-09-28T10:36:55.194Z,56.98
2022-09-28T10:39:34.697Z,57.92
2022-09-28T10:42:07.549Z,57.97
2022-09-28T10:44:50.718Z,58.86
2022-09-28T10:47:20.484Z,59.29
2022-09-28T10:49:50.541Z,58.01
2022-09-28T10:52:34.305Z,56.38
2022-09-28T10:55:02.761Z,56.88
2022-09-28T10:57:35.526Z,58.45
2022-09-28T11:00:14.232Z,57.69
2022-09-28T11:02:42.751Z,58.97
2022-09-28T11:05:21.443Z,58.67
2022-09-28T11:07:49.864Z,58.37
2022-09-28T11:10:25.136Z,58.20
2022-09-28T11:12:53.946Z,55.54
2022-09-28T11:15:26.263Z,55.15
2022-09-28T11:17:54.182Z,54.85
2022-09-28T11:20:27.514Z,54.76
2022-09-28T11:22:57.308Z,53.54
2022-09-28T11:25:29.531Z,55.88
2022-09-28T11:28:01.104Z,53.52
2022-09-28T11:30:34.184Z,53.04
2022-09-28T11:33:19.071Z,52.22
2022-09-28T11:36:00.217Z,53.96
2022-09-28T11:38:40.690Z,53.84
2022-09-28T11:41:45.904Z,54.33
2022-09-28T11:44:28.189Z,55.11
2022-09-28T11:47:38.456Z,53.62
2022-09-28T11:50:31.712Z,53.11
2022-09-28T11:53:29.417Z,52.91
2022-09-28T11:56:03.200Z,54.91
2022-09-28T11:58:43.075Z,54.59
2022-09-28T12:01:35.700Z,52.35
2022-09-28T12:04:13.308Z,52.81
2022-09-28T12:06:46.865Z,53.66
2022-09-28T12:09:22.478Z,52.75
2022-09-28T12:11:57.751Z,50.97
2022-09-28T12:14:31.262Z,51.33
2022-09-28T12:17:22.250Z,51.75
2022-09-28T12:20:18.777Z,53.31
2022-09-28T12:22:59.448Z,53.57
2022-09-28T12:25:32.064Z,53.62
2022-09-28T12:28:16.335Z,54.95
2022-09-28T12:30:45.655Z,55.75
2022-09-28T12:33:17.410Z,56.53
2022-09-28T12:36:01.679Z,56.06
2022-09-28T12:39:14.827Z,54.25
2022-09-28T12:42:07.207Z,53.82
2022-09-28T12:44:46.821Z,53.20
2022-09-28T12:47:15.235Z,51.63
2022-09-28T12:50:37.546Z,52.16
2022-09-28T12:53:14.033Z,53.32
2022-09-28T12:55:47.651Z,53.17
2022-09-28T12:58:24.145Z,53.52
2022-09-28T13:00:54.869Z,51.68
2022-09-28T13:03:56.721Z,53.44
2022-09-28T13:06:44.457Z,53.27
2022-09-28T13:09:20.288Z,53.84
2022-09-28T13:12:13.265Z,52.49
2022-09-28T13:15:18.250Z,52.80
2022-09-28T13:17:57.190Z,53.38
2022-09-28T13:20:31.440Z,54.33
2022-09-28T13:23:28.117Z,54.92
2022-09-28T13:26:14.462Z,56.65
2022-09-28T13:28:43.688Z,56.76
2022-09-28T13:31:13.194Z,56.86
2022-09-28T13:33:43.370Z,56.87
2022-09-28T13:36:26.527Z,56.36
2022-09-28T13:38:55.716Z,54.89
2022-09-28T13:41:35.785Z,52.49
2022-09-28T13:44:12.639Z,54.75
2022-09-28T13:46:59.977Z,54.87
2022-09-28T13:50:00.861Z,55.17
2022-09-28T13:52:32.985Z,54.12
2022-09-28T13:55:23.443Z,52.54
2022-09-28T13:58:16.719Z,52.69
2022-09-28T14:00:50.542Z,52.38
2022-09-28T14:03:37.091Z,51.54
2022-09-28T14:06:21.406Z,51.05
2022-09-28T14:08:52.658Z,53.32
2022-09-28T14:11:24.953Z,52.76
2022-09-28T14:14:08.220Z,52.65
2022-09-28T14:16:36.890Z,52.82
2022-09-28T14:19:09.074Z,53.52
2022-09-28T14:22:13.936Z,53.89
2022-09-28T14:25:19.606Z,53.63
2022-09-28T14:28:14.816Z,53.50
2022-09-28T14:30:43.067Z,53.82
2022-09-28T14:33:26.486Z,53.31
2022-09-28T14:35:58.298Z,54.31
2022-09-28T14:38:48.359Z,54.40
2022-09-28T14:41:17.736Z,54.89
2022-09-28T14:43:44.997Z,55.59
2022-09-28T14:46:15.688Z,53.96
2022-09-28T14:48:56.435Z,52.44
2022-09-28T14:51:27.198Z,51.41
2022-09-28T14:54:06.405Z,52.04
2022-09-28T14:56:44.468Z,51.35
2022-09-28T14:59:38.656Z,52.30
2022-09-28T15:02:15.097Z,52.32
2022-09-28T15:04:53.394Z,51.69
2022-09-28T15:07:29.716Z,51.63
2022-09-28T15:09:59.575Z,50.10
2022-09-28T15:12:30.867Z,51.02
2022-09-28T15:15:08.596Z,52.72
2022-09-28T15:17:40.068Z,51.50
2022-09-28T15:20:30.665Z,52.55
2022-09-28T15:22:59.592Z,53.51
2022-09-28T15:25:30.176Z,53.00
2022-09-28T15:28:01.064Z,50.90
2022-09-28T15:30:31.986Z,52.13
2022-09-28T15:33:19.452Z,51.94
2022-09-28T15:36:02.728Z,51.43
2022-09-28T15:38:32.436Z,51.84
2022-09-28T15:41:04.882Z,53.10
2022-09-28T15:43:33.941Z,53.00
2022-09-28T15:46:11.780Z,52.51
2022-09-28T15:48:53.430Z,52.13
2022-09-28T15:51:22.396Z,51.82
2022-09-28T15:54:11.677Z,51.93
2022-09-28T15:56:53.781Z,51.15
2022-09-28T15:59:32.073Z,52.36
2022-09-28T16:02:20.785Z,52.28
2022-09-28T16:04:55.410Z,52.01
2022-09-28T16:07:28.654Z,53.16
2022-09-28T16:10:01.433Z,52.78
2022-09-28T16:12:38.470Z,52.68
2022-09-28T16:15:23.848Z,53.32
2022-09-28T16:17:52.704Z,52.72
2022-09-28T16:20:32.144Z,52.35
2022-09-28T16:23:05.947Z,52.88
2022-09-28T16:25:37.417Z,53.32
2022-09-28T16:28:05.898Z,52.13
2022-09-28T16:30:34.906Z,52.79
2022-09-28T16:33:27.096Z,53.09
2022-09-28T16:35:54.937Z,53.48
2022-09-28T16:38:22.496Z,53.40
2022-09-28T16:40:52.753Z,52.73
2022-09-28T16:43:36.235Z,53.27
2022-09-28T16:46:09.530Z,54.23
2022-09-28T16:48:41.904Z,54.34
2022-09-28T16:51:09.544Z,53.84
2022-09-28T16:53:56.259Z,53.81
2022-09-28T16:56:23.799Z,54.56
2022-09-28T16:58:51.426Z,54.08
2022-09-28T17:01:19.663Z,55.01
2022-09-28T17:03:48.877Z,53.63
2022-09-28T17:06:21.573Z,54.15
2022-09-28T17:08:48.927Z,56.15
2022-09-28T17:11:24.087Z,54.34
2022-09-28T17:13:59.087Z,54.56
2022-09-28T17:19:21.225Z,56.99
2022-09-28T17:21:50.516Z,56.20
2022-09-28T17:24:19.164Z,55.70
2022-09-28T17:26:49.581Z,56.30
2022-09-28T17:29:18.413Z,55.67
2022-09-28T17:31:47.099Z,58.47
2022-09-28T17:34:16.357Z,58.26
2022-09-28T17:36:44.900Z,58.08
2022-09-28T17:39:14.362Z,59.54
2022-09-28T17:41:42.934Z,59.96
2022-09-28T17:44:14.851Z,60.11
2022-09-28T17:46:47.456Z,62.76
2022-09-28T17:49:16.247Z,62.45
2022-09-28T17:51:43.734Z,63.31
2022-09-28T17:54:13.772Z,64.41
2022-09-28T17:56:42.657Z,64.42
2022-09-28T17:59:17.776Z,63.97
2022-09-28T18:01:45.854Z,64.30
2022-09-28T18:04:33.228Z,63.75
2022-09-28T18:07:01.288Z,63.99
2022-09-28T18:09:29.419Z,65.48
2022-09-28T18:12:01.154Z,66.32
2022-09-28T18:14:30.154Z,67.07
2022-09-28T18:16:57.824Z,68.28
2022-09-28T18:19:28.598Z,67.72
2022-09-28T18:21:59.739Z,67.91
2022-09-28T18:24:27.349Z,68.12
2022-09-28T18:26:55.141Z,68.31
2022-09-28T18:29:23.121Z,69.84
2022-09-28T18:31:51.175Z,68.67
2022-09-28T18:34:19.157Z,68.50
2022-09-28T18:36:47.172Z,69.20
2022-09-28T18:39:15.084Z,70.53
2022-09-28T18:41:43.460Z,70.53
2022-09-28T18:44:12.688Z,71.54
2022-09-28T18:46:42.972Z,71.36
2022-09-28T18:49:11.532Z,71.50
2022-09-28T18:51:39.762Z,72.56
2022-09-28T18:54:07.898Z,71.31
2022-09-28T18:56:37.962Z,71.23
2022-09-28T18:59:11.774Z,71.19
2022-09-28T19:01:41.898Z,71.69
2022-09-28T19:04:11.493Z,70.63
2022-09-28T19:06:40.865Z,72.16
2022-09-28T19:09:08.934Z,73.51
2022-09-28T19:11:36.600Z,72.90
2022-09-28T19:14:04.811Z,73.63
2022-09-28T19:16:34.169Z,73.64
2022-09-28T19:19:03.357Z,73.84
2022-09-28T19:21:31.006Z,74.19
2022-09-28T19:24:02.887Z,74.30
2022-09-28T19:26:31.005Z,74.29
2022-09-28T19:28:59.665Z,73.81
2022-09-28T19:31:27.455Z,73.59
2022-09-28T19:33:55.071Z,73.54
2022-09-28T19:36:24.836Z,74.60
2022-09-28T19:38:52.775Z,76.44
2022-09-28T19:41:43.493Z,75.70
2022-09-28T19:44:36.057Z,75.00
2022-09-28T19:47:10.221Z,74.73
2022-09-28T19:49:40.002Z,75.27
2022-09-28T19:52:15.918Z,75.52
2022-09-28T19:54:55.702Z,75.03
2022-09-28T19:57:25.993Z,74.66
2022-09-28T19:59:59.205Z,75.18
2022-09-28T20:02:34.086Z,74.53
2022-09-28T20:05:02.200Z,75.28
2022-09-28T20:07:33.091Z,75.87
2022-09-28T20:10:00.790Z,76.22
2022-09-28T20:12:28.445Z,74.34
2022-09-28T20:14:56.304Z,75.58
2022-09-28T20:17:24.236Z,75.93
2022-09-28T20:19:51.939Z,75.39
2022-09-28T20:22:20.096Z,76.13
2022-09-28T20:24:49.575Z,76.40
2022-09-28T20:27:17.585Z,76.58
2022-09-28T20:29:45.902Z,77.08
2022-09-28T20:32:14.395Z,77.13
2022-09-28T20:34:42.584Z,77.61
2022-09-28T20:37:13.643Z,77.34
2022-09-28T20:39:44.754Z,77.67
2022-09-28T20:42:14.251Z,78.56
2022-09-28T20:44:42.160Z,79.06
2022-09-28T20:47:09.882Z,78.46
2022-09-28T20:49:37.727Z,78.67
2022-09-28T20:52:05.231Z,79.19
2022-09-28T20:54:32.773Z,79.41
2022-09-28T20:57:00.417Z,80.27
2022-09-28T20:59:27.954Z,79.91
2022-09-28T21:01:55.608Z,77.40
2022-09-28T21:04:23.376Z,77.48
2022-09-28T21:06:50.909Z,77.90
2022-09-28T21:09:18.517Z,77.12
2022-09-28T21:11:46.772Z,76.56
2022-09-28T21:14:14.494Z,78.46
2022-09-28T21:16:41.996Z,79.18
2022-09-28T21:19:10.052Z,78.25
2022-09-28T21:21:38.782Z,77.94
2022-09-28T21:24:06.567Z,78.49
2022-09-28T21:26:35.464Z,77.67
2022-09-28T21:29:05.926Z,76.21
2022-09-28T21:31:47.733Z,76.79
2022-09-28T21:34:19.417Z,76.48
2022-09-28T21:36:50.965Z,75.73
2022-09-28T21:39:20.229Z,75.33
2022-09-28T21:41:48.260Z,75.77
2022-09-28T21:44:16.123Z,76.17
2022-09-28T21:46:43.561Z,77.06
2022-09-28T21:49:12.771Z,77.29
2022-09-28T21:51:40.359Z,78.73
2022-09-28T21:54:08.575Z,77.46
2022-09-28T21:56:36.319Z,76.40
2022-09-28T21:59:04.163Z,75.87
2022-09-28T22:01:31.815Z,76.42
2022-09-28T22:04:00.042Z,77.36
